createdAt,value
2022-12-23T01:43:50.118Z,99001.15
2022-12-23T01:46:17.249Z,98998.33
2022-12-23T01:48:45.363Z,99001.51
2022-12-23T01:51:14.912Z,99001.14
2022-12-23T01:53:47.089Z,99005.11
2022-12-23T01:56:17.044Z,99000.06
2022-12-23T01:58:46.582Z,98999.65
2022-12-23T02:01:32.253Z,98995.65
2022-12-23T02:04:00.934Z,98994.75
2022-12-23T02:06:48.118Z,98993.72
2022-12-23T02:09:26.179Z,98993.80
2022-12-23T02:12:21.589Z,98996.32
2022-12-23T02:15:32.045Z,98985.75
2022-12-23T02:18:15.939Z,98990.05
2022-12-23T02:21:11.269Z,98989.34
2022-12-23T02:23:53.173Z,98981.04
2022-12-23T02:27:11.337Z,98988.16
2022-12-23T02:29:56.827Z,98983.60
2022-12-23T02:32:29.078Z,98972.75
2022-12-23T02:34:56.967Z,98979.14
2022-12-23T02:37:54.364Z,98975.02
2022-12-23T02:40:30.025Z,98965.52
2022-12-23T02:43:01.459Z,98968.58
2022-12-23T02:45:28.146Z,98975.23
2022-12-23T02:47:56.657Z,98970.74
2022-12-23T02:50:31.938Z,98969.69
2022-12-23T02:52:59.956Z,98972.66
2022-12-23T02:55:29.062Z,98971.76
2022-12-23T02:57:55.833Z,98972.17
2022-12-23T03:00:23.218Z,98970.39
2022-12-23T03:02:50.054Z,98970.27
2022-12-23T03:05:24.044Z,98970.96
2022-12-23T03:07:50.735Z,98974.20
2022-12-23T03:10:36.244Z,98975.27
2022-12-23T03:13:15.243Z,98975.27
2022-12-23T03:15:56.409Z,98978.95
2022-12-23T03:18:29.373Z,98974.67
2022-12-23T03:21:14.395Z,98982.89
2022-12-23T03:23:55.903Z,98975.68
2022-12-23T03:26:32.963Z,98964.34
2022-12-23T03:29:13.819Z,98961.64
2022-12-23T03:31:40.631Z,98965.70
2022-12-23T03:34:09.179Z,98959.86
2022-12-23T03:36:42.125Z,98967.95
2022-12-23T03:39:10.843Z,98962.23
2022-12-23T03:41:40.999Z,98976.92
2022-12-23T03:44:13.687Z,98975.52
2022-12-23T03:46:42.943Z,98971.02
2022-12-23T03:49:13.517Z,98968.16
2022-12-23T03:51:53.131Z,98972.42
2022-12-23T03:54:22.649Z,98975.23
2022-12-23T03:57:01.623Z,98965.90
2022-12-23T03:59:32.925Z,98960.08
2022-12-23T04:02:16.595Z,98951.14
2022-12-23T04:04:52.132Z,98955.97
2022-12-23T04:07:30.854Z,98953.30
2022-12-23T04:09:57.573Z,98945.84
2022-12-23T04:12:24.705Z,98946.13
2022-12-23T04:14:51.377Z,98945.67
2022-12-23T04:17:18.109Z,98950.54
2022-12-23T04:19:47.786Z,98946.04
2022-12-23T04:22:15.134Z,98950.63
2022-12-23T04:24:41.941Z,98951.98
2022-12-23T04:27:09.723Z,98960.90
2022-12-23T04:29:36.386Z,98968.74
2022-12-23T04:32:03.103Z,98971.13
2022-12-23T04:34:29.829Z,98980.41
2022-12-23T04:36:56.567Z,98973.20
2022-12-23T04:39:23.317Z,98981.77
2022-12-23T04:41:50.020Z,98993.08
2022-12-23T04:44:16.736Z,99003.89
2022-12-23T04:46:43.553Z,99005.13
2022-12-23T04:49:10.193Z,99005.25
2022-12-23T04:51:36.873Z,99003.62
2022-12-23T04:54:03.746Z,99003.45
2022-12-23T04:56:30.398Z,98999.58
2022-12-23T04:58:57.080Z,98991.87
2022-12-23T05:01:23.809Z,98994.80
2022-12-23T05:03:50.505Z,98992.48
2022-12-23T05:06:17.185Z,98994.55
2022-12-23T05:08:43.873Z,98994.67
2022-12-23T19:59:54.409Z,98986.67
2022-12-23T20:27:38.101Z,98981.32
2022-12-23T20:30:05.606Z,98975.11
2022-12-23T20:32:32.380Z,98967.07
2022-12-23T20:34:59.145Z,98967.83
2022-12-23T20:37:25.788Z,98970.52
2022-12-23T20:39:53.624Z,98971.52
2022-12-23T21:00:46.361Z,98963.08
2022-12-23T21:03:13.125Z,98951.89
2022-12-23T21:05:39.980Z,98944.48
2022-12-23T21:08:06.785Z,98937.27
2022-12-23T21:10:35.726Z,98938.25
2022-12-23T21:13:03.553Z,98943.25
2022-12-23T21:15:33.340Z,98935.20
2022-12-23T21:18:00.157Z,98933.55
2022-12-23T21:20:26.844Z,98943.28
2022-12-23T21:22:53.608Z,98939.85
2022-12-23T21:25:20.361Z,98938.03
2022-12-23T21:27:47.110Z,98939.05
2022-12-23T21:30:14.082Z,98946.29
2022-12-23T21:32:40.881Z,98947.02
2022-12-23T21:35:07.765Z,98956.27
2022-12-23T21:37:34.466Z,98960.38
2022-12-23T21:40:01.270Z,98961.50
2022-12-23T21:42:27.944Z,98958.29
2022-12-23T21:44:54.646Z,98962.63
2022-12-23T21:47:21.375Z,98967.59
2022-12-23T21:49:48.124Z,98963.42
2022-12-23T21:52:14.827Z,98954.84
2022-12-23T21:54:41.575Z,98956.68
2022-12-23T21:57:08.291Z,98958.36
2022-12-23T21:59:35.625Z,98959.05
2022-12-23T22:02:02.600Z,98954.65
2022-12-23T22:04:29.377Z,98953.66
2022-12-23T22:06:56.119Z,98952.75
2022-12-23T22:09:22.806Z,98952.95
2022-12-23T22:11:49.564Z,98946.45
2022-12-23T22:14:17.716Z,98944.14
2022-12-23T22:16:44.534Z,98944.84
2022-12-23T22:19:11.319Z,98950.42
2022-12-23T22:21:39.615Z,98945.17
2022-12-23T22:24:06.728Z,98944.18
2022-12-23T22:26:33.521Z,98943.48
2022-12-23T22:29:01.654Z,98943.23
2022-12-23T22:31:38.542Z,98939.27
2022-12-23T22:34:05.431Z,98934.77
2022-12-23T22:36:32.190Z,98935.11
2022-12-23T22:38:59.821Z,98938.26
2022-12-23T22:41:27.966Z,98943.10
2022-12-23T22:43:55.069Z,98946.86
2022-12-23T22:46:22.093Z,98940.42
2022-12-23T22:48:48.914Z,98936.28
2022-12-23T22:51:17.422Z,98935.41
2022-12-23T22:53:44.174Z,98935.14
2022-12-23T22:56:12.086Z,98936.52
2022-12-23T22:58:38.907Z,98942.58
2022-12-23T23:01:05.691Z,98942.66
2022-12-23T23:03:32.588Z,98940.21
2022-12-23T23:06:06.877Z,98939.26
2022-12-23T23:08:33.988Z,98939.95
2022-12-23T23:11:01.876Z,98935.52
2022-12-23T23:13:30.307Z,98934.36
2022-12-23T23:15:57.500Z,98942.65
2022-12-23T23:18:24.466Z,98942.40
2022-12-23T23:20:51.173Z,98944.33
2022-12-23T23:23:17.841Z,98944.86
2022-12-23T23:25:45.117Z,98942.63
2022-12-23T23:28:11.891Z,98948.72
2022-12-23T23:30:39.074Z,98950.33
2022-12-23T23:33:06.724Z,98947.40
2022-12-23T23:35:33.528Z,98945.27
2022-12-23T23:38:00.219Z,98946.19
2022-12-23T23:40:27.203Z,98946.81
2022-12-23T23:42:54.132Z,98949.67
2022-12-23T23:45:20.810Z,98947.64
2022-12-23T23:47:47.483Z,98946.61
2022-12-23T23:50:14.145Z,98941.63
2022-12-23T23:52:40.839Z,98938.61
2022-12-23T23:55:08.073Z,98930.38
2022-12-23T23:57:34.792Z,98927.89
